Time;durP1;ratioP1;P1;durP2;ratioP2;P2;SDS_P1;SDS_P2;PMS_P1;PMS_P2;Temp;Humidity;BMP_temperature;BMP_pressure;BME280_temperature;BME280_humidity;BME280_pressure;Samples;Min_cycle;Max_cycle;Signal;HPM_P1;HPM_P2
2023/04/05 00:01:48;;;;;;;4.63;3.65;;;20.40;28.60;;;;;;5048041;28;20125;-47
2023/04/05 00:04:19;;;;;;;5.05;3.35;;;20.40;28.60;;;;;;5048178;28;20048;-49
2023/04/05 00:06:49;;;;;;;4.63;3.45;;;20.40;28.60;;;;;;5046436;28;20037;-51
2023/04/05 00:09:18;;;;;;;4.05;3.05;;;20.40;28.60;;;;;;5047868;28;20108;-48
2023/04/05 00:11:44;;;;;;;3.63;2.70;;;20.40;28.60;;;;;;5049318;28;20032;-48
2023/04/05 00:14:10;;;;;;;4.82;3.17;;;20.40;28.60;;;;;;5048373;28;20029;-49
2023/04/05 00:16:36;;;;;;;4.93;3.00;;;20.40;28.60;;;;;;5075842;28;20024;-49
2023/04/05 00:19:02;;;;;;;4.68;3.10;;;20.40;28.70;;;;;;5050161;28;20116;-48
2023/04/05 00:21:27;;;;;;;4.07;2.78;;;20.40;28.60;;;;;;5047687;28;20532;-50
2023/04/05 00:23:57;;;;;;;4.80;3.03;;;20.40;28.60;;;;;;5049478;28;20021;-48
2023/04/05 00:26:23;;;;;;;3.88;2.65;;;20.40;28.60;;;;;;5044079;28;20044;-45
2023/04/05 00:28:53;;;;;;;5.30;3.13;;;20.40;28.60;;;;;;5048445;28;20338;-50
2023/04/05 00:31:19;;;;;;;4.55;2.72;;;20.40;28.60;;;;;;5044162;28;20067;-45
2023/04/05 00:33:45;;;;;;;4.03;2.85;;;20.40;28.60;;;;;;5046153;28;20036;-46
2023/04/05 00:36:16;;;;;;;3.90;2.67;;;20.40;28.70;;;;;;5049918;28;20021;-50
2023/04/05 00:38:43;;;;;;;4.00;2.65;;;20.40;28.60;;;;;;5048183;28;21542;-49
2023/04/05 00:41:10;;;;;;;3.95;2.70;;;20.40;28.60;;;;;;5049551;28;20107;-49
2023/04/05 00:43:36;;;;;;;3.08;2.20;;;20.40;28.60;;;;;;5046792;28;20044;-47
2023/04/05 00:46:04;;;;;;;3.78;2.72;;;20.40;28.60;;;;;;5043663;28;20183;-47
2023/04/05 00:48:30;;;;;;;3.35;2.33;;;20.40;28.60;;;;;;5042606;28;20112;-49
2023/04/05 00:50:57;;;;;;;3.42;2.42;;;20.40;28.60;;;;;;5046658;28;20037;-53
2023/04/05 00:53:23;;;;;;;5.40;2.70;;;20.40;28.60;;;;;;5050434;28;20024;-54
2023/04/05 00:55:52;;;;;;;4.10;2.63;;;20.40;28.60;;;;;;5048812;28;20029;-47
2023/04/05 00:58:21;;;;;;;3.08;2.17;;;20.30;28.50;;;;;;5047453;28;20106;-52
2023/04/05 01:01:00;;;;;;;3.45;2.22;;;20.30;28.50;;;;;;5043005;28;20045;-47
2023/04/05 01:03:28;;;;;;;3.50;2.28;;;20.30;28.50;;;;;;5041746;28;20059;-48
2023/04/05 01:06:12;;;;;;;3.33;2.30;;;20.30;28.50;;;;;;5050037;28;20041;-47
2023/04/05 01:09:00;;;;;;;3.78;2.45;;;20.30;28.60;;;;;;5038451;28;20033;-46
2023/04/05 01:11:27;;;;;;;3.53;2.30;;;20.30;28.50;;;;;;5050521;28;20582;-50
2023/04/05 01:14:00;;;;;;;2.58;1.95;;;20.30;28.50;;;;;;5046465;28;20029;-48
2023/04/05 01:16:27;;;;;;;2.70;2.05;;;20.30;28.60;;;;;;5043233;28;20039;-47
2023/04/05 01:18:57;;;;;;;2.85;2.08;;;20.30;28.60;;;;;;5041888;28;20037;-47
2023/04/05 01:21:38;;;;;;;3.80;2.45;;;20.30;28.60;;;;;;5048012;28;20094;-49
2023/04/05 01:24:31;;;;;;;4.65;2.28;;;20.30;28.60;;;;;;5045181;28;20487;-49
2023/04/05 01:27:01;;;;;;;3.20;2.40;;;20.20;28.60;;;;;;5052052;28;20079;-51
2023/04/05 01:29:49;;;;;;;4.60;2.60;;;20.30;28.70;;;;;;5049662;28;20107;-48
2023/04/05 01:32:24;;;;;;;3.35;2.10;;;20.30;28.70;;;;;;5050969;28;20028;-49
2023/04/05 01:34:52;;;;;;;3.10;2.22;;;20.20;28.60;;;;;;5048364;28;20028;-49
2023/04/05 01:37:21;;;;;;;2.90;2.00;;;20.20;28.70;;;;;;5049318;28;20032;-48
2023/04/05 01:39:49;;;;;;;3.75;2.20;;;20.20;28.70;;;;;;5048809;28;20111;-51
2023/04/05 01:42:23;;;;;;;3.17;2.00;;;20.20;28.70;;;;;;5051631;28;20060;-47
2023/04/05 01:44:50;;;;;;;2.67;2.08;;;20.20;28.70;;;;;;5047645;28;20464;-49
2023/04/05 01:47:15;;;;;;;3.33;2.05;;;20.20;28.70;;;;;;5050443;28;20752;-48
2023/04/05 01:49:41;;;;;;;2.30;1.77;;;20.20;28.70;;;;;;5050808;28;20050;-53
2023/04/05 01:52:07;;;;;;;2.92;2.05;;;20.20;28.70;;;;;;5049787;28;20030;-52
2023/04/05 01:54:33;;;;;;;2.83;2.15;;;20.20;28.70;;;;;;5051092;28;20031;-47
2023/04/05 01:56:59;;;;;;;3.25;2.00;;;20.20;28.70;;;;;;5052270;28;20033;-50
2023/04/05 01:59:25;;;;;;;3.55;2.33;;;20.20;28.70;;;;;;5049277;28;20124;-49
2023/04/05 02:01:51;;;;;;;2.40;1.70;;;20.20;28.70;;;;;;5049407;28;20159;-51
2023/04/05 02:04:17;;;;;;;2.80;2.10;;;20.20;28.70;;;;;;5047132;28;20025;-46
2023/04/05 02:06:43;;;;;;;3.85;2.38;;;20.20;28.70;;;;;;5052963;28;20048;-48
2023/04/05 02:09:09;;;;;;;3.38;2.10;;;20.20;28.70;;;;;;5048819;28;20037;-49
2023/04/05 02:11:35;;;;;;;3.58;2.10;;;20.20;28.70;;;;;;5049026;28;20039;-50
2023/04/05 02:14:00;;;;;;;2.97;2.33;;;20.20;28.70;;;;;;5048073;28;20036;-48
2023/04/05 02:16:26;;;;;;;2.47;1.55;;;20.20;28.70;;;;;;5049895;28;20056;-46
2023/04/05 02:18:56;;;;;;;2.83;1.85;;;20.20;28.80;;;;;;5053885;28;20454;-48
2023/04/05 02:21:22;;;;;;;3.28;2.00;;;20.20;28.80;;;;;;5045200;28;20476;-49
2023/04/05 02:23:49;;;;;;;2.90;1.83;;;20.20;28.80;;;;;;5049772;28;20025;-52
2023/04/05 02:26:16;;;;;;;2.65;1.83;;;20.10;28.70;;;;;;5049337;28;20126;-49
2023/04/05 02:28:42;;;;;;;3.10;2.05;;;20.10;28.70;;;;;;5053134;28;20037;-45
2023/04/05 02:31:10;;;;;;;3.25;2.00;;;20.10;28.80;;;;;;5051065;28;20056;-50
2023/04/05 02:33:36;;;;;;;2.40;1.77;;;20.10;28.80;;;;;;5043273;28;20341;-49
2023/04/05 02:36:11;;;;;;;2.15;1.42;;;20.10;28.80;;;;;;5051543;28;20095;-51
2023/04/05 02:38:37;;;;;;;2.53;1.80;;;20.10;28.80;;;;;;5043307;28;20034;-49
2023/04/05 02:41:03;;;;;;;2.22;1.55;;;20.10;28.80;;;;;;5049046;28;20360;-49
2023/04/05 02:43:29;;;;;;;3.42;1.90;;;20.10;28.80;;;;;;5052208;28;20180;-49
2023/04/05 02:45:55;;;;;;;3.75;1.60;;;20.10;29.30;;;;;;5051751;28;20182;-46
2023/04/05 02:48:22;;;;;;;2.22;1.70;;;20.10;28.80;;;;;;5044055;28;20048;-48
2023/04/05 02:50:50;;;;;;;3.17;2.00;;;20.10;28.80;;;;;;5047683;28;20491;-47
2023/04/05 02:53:17;;;;;;;2.47;1.52;;;20.10;28.80;;;;;;5045317;28;20048;-47
2023/04/05 02:55:53;;;;;;;3.42;1.90;;;20.10;28.80;;;;;;5045615;28;21129;-51
2023/04/05 02:58:20;;;;;;;2.55;1.63;;;20.10;28.80;;;;;;5048723;28;20401;-47
2023/04/05 03:00:51;;;;;;;1.92;1.58;;;20.10;28.80;;;;;;5049137;28;20029;-54
2023/04/05 03:03:23;;;;;;;2.63;1.85;;;20.10;28.80;;;;;;5048746;28;20420;-51
2023/04/05 03:05:59;;;;;;;2.33;1.42;;;20.10;28.90;;;;;;5047938;28;20082;-49
2023/04/05 03:08:27;;;;;;;2.28;1.58;;;20.10;28.90;;;;;;5047593;28;20025;-51
2023/04/05 03:11:00;;;;;;;2.90;1.60;;;20.00;28.80;;;;;;5073542;28;20040;-47
2023/04/05 03:13:27;;;;;;;3.17;1.30;;;20.10;28.90;;;;;;5047982;28;20056;-49
2023/04/05 03:15:54;;;;;;;1.92;1.38;;;20.00;28.80;;;;;;5049334;28;20424;-47
2023/04/05 03:18:21;;;;;;;1.75;1.27;;;20.00;28.90;;;;;;5047375;28;20064;-49
2023/04/05 03:20:55;;;;;;;2.72;1.42;;;20.10;28.90;;;;;;5044326;28;20027;-48
2023/04/05 03:23:27;;;;;;;2.85;1.65;;;20.10;28.90;;;;;;5052265;28;20036;-49
2023/04/05 03:26:03;;;;;;;1.92;1.30;;;20.10;28.90;;;;;;5045270;28;20041;-49
2023/04/05 03:28:33;;;;;;;1.95;1.45;;;20.00;28.80;;;;;;5049370;28;20033;-49
2023/04/05 03:31:02;;;;;;;3.40;1.65;;;20.00;28.80;;;;;;5046318;28;20025;-49
2023/04/05 03:33:28;;;;;;;2.03;1.40;;;20.00;28.80;;;;;;5049955;28;20050;-50
2023/04/05 03:35:54;;;;;;;1.92;1.23;;;20.00;28.80;;;;;;5048449;28;20029;-46
2023/04/05 03:38:21;;;;;;;2.33;1.60;;;20.00;28.80;;;;;;5047976;28;20037;-53
2023/04/05 03:41:00;;;;;;;1.83;1.60;;;20.00;28.80;;;;;;5042478;28;20040;-49
2023/04/05 03:43:29;;;;;;;1.92;1.60;;;20.00;28.80;;;;;;5046324;28;20052;-46
2023/04/05 03:45:56;;;;;;;1.70;1.35;;;20.00;28.80;;;;;;5046719;28;20054;-48
2023/04/05 03:48:25;;;;;;;2.63;1.60;;;20.00;28.80;;;;;;5044765;28;20338;-50
2023/04/05 03:50:51;;;;;;;2.30;1.58;;;20.00;28.90;;;;;;5045782;28;20022;-48
2023/04/05 03:53:19;;;;;;;2.92;1.58;;;20.00;28.90;;;;;;5048719;28;20083;-51
2023/04/05 03:55:49;;;;;;;2.80;1.50;;;20.00;28.90;;;;;;5050205;28;20044;-47
2023/04/05 03:58:17;;;;;;;3.15;1.40;;;20.00;28.90;;;;;;5042475;28;20063;-46
2023/04/05 04:00:43;;;;;;;3.17;1.50;;;20.00;28.90;;;;;;5046733;28;20345;-50
2023/04/05 04:03:15;;;;;;;2.60;1.60;;;20.00;28.90;;;;;;5048368;28;20057;-48
2023/04/05 04:05:44;;;;;;;2.20;1.30;;;20.00;28.90;;;;;;5047171;28;20121;-45
2023/04/05 04:08:11;;;;;;;2.30;1.42;;;20.00;28.90;;;;;;5042894;28;20026;-51
2023/04/05 04:10:37;;;;;;;2.38;1.45;;;20.00;28.90;;;;;;5045282;28;20107;-51
2023/04/05 04:13:10;;;;;;;3.17;1.83;;;19.90;28.90;;;;;;5044768;28;20456;-51
2023/04/05 04:15:36;;;;;;;3.15;1.50;;;19.90;28.90;;;;;;5049049;28;20025;-48
2023/04/05 04:18:28;;;;;;;2.45;1.40;;;19.90;28.90;;;;;;5042137;28;20060;-51
2023/04/05 04:21:31;;;;;;;2.35;1.45;;;19.90;28.90;;;;;;5039560;28;20044;-49
2023/04/05 04:24:17;;;;;;;2.05;1.30;;;19.90;28.90;;;;;;5046821;28;20047;-47
2023/04/05 04:27:12;;;;;;;1.80;1.30;;;19.90;28.90;;;;;;5031282;28;20467;-49
2023/04/05 04:30:03;;;;;;;1.65;1.27;;;19.90;28.90;;;;;;5047863;28;20089;-49
2023/04/05 04:32:56;;;;;;;2.55;1.42;;;19.90;28.90;;;;;;5044373;28;20056;-49
2023/04/05 04:35:29;;;;;;;2.13;1.48;;;19.90;28.90;;;;;;5046044;28;20086;-49
2023/04/05 04:38:17;;;;;;;1.98;1.17;;;19.90;28.90;;;;;;5044265;28;20476;-50
2023/04/05 04:40:49;;;;;;;3.53;1.35;;;19.90;29.00;;;;;;5043601;28;20116;-52
2023/04/05 04:43:26;;;;;;;;;;;19.90;29.00;;;;;;5048040;28;20060;-48
2023/04/05 04:46:09;;;;;;;3.90;1.42;;;19.90;29.00;;;;;;5048162;28;19968;-50
2023/04/05 04:48:41;;;;;;;3.15;1.60;;;19.90;29.00;;;;;;5043094;28;20032;-50
2023/04/05 04:51:39;;;;;;;2.38;1.40;;;19.90;29.00;;;;;;5041414;28;20102;-48
2023/04/05 04:54:06;;;;;;;2.47;1.48;;;19.90;29.00;;;;;;5044907;28;20512;-50
2023/04/05 04:56:33;;;;;;;1.73;1.20;;;19.80;28.90;;;;;;5049578;28;20049;-47
2023/04/05 04:58:59;;;;;;;1.52;1.13;;;19.90;28.90;;;;;;5039506;28;20040;-52
2023/04/05 05:01:25;;;;;;;1.92;1.50;;;19.80;28.90;;;;;;5045490;28;20104;-51
2023/04/05 05:03:51;;;;;;;2.67;1.42;;;19.80;28.90;;;;;;5045440;28;20020;-54
2023/04/05 05:06:25;;;;;;;3.78;1.27;;;19.80;28.90;;;;;;5045771;28;20403;-53
2023/04/05 05:08:51;;;;;;;1.85;1.30;;;19.80;28.90;;;;;;5044156;28;20029;-52
2023/04/05 05:11:18;;;;;;;2.25;1.33;;;19.90;28.90;;;;;;5043722;28;20048;-48
2023/04/05 05:13:43;;;;;;;2.28;1.25;;;19.80;28.80;;;;;;5046507;28;20036;-45
2023/04/05 05:16:17;;;;;;;2.10;1.50;;;19.80;28.80;;;;;;5045844;28;20021;-51
2023/04/05 05:18:46;;;;;;;3.20;1.40;;;19.80;28.80;;;;;;5043987;28;20059;-49
2023/04/05 05:21:12;;;;;;;2.47;1.55;;;19.80;28.80;;;;;;5047719;28;20520;-48
2023/04/05 05:23:38;;;;;;;3.58;1.65;;;19.80;28.80;;;;;;5046597;28;20111;-49
2023/04/05 05:26:05;;;;;;;2.65;1.33;;;19.80;28.80;;;;;;5041298;28;20353;-50
2023/04/05 05:28:30;;;;;;;2.78;1.40;;;19.80;28.80;;;;;;5048645;28;20413;-48
2023/04/05 05:30:56;;;;;;;1.52;1.10;;;19.80;28.80;;;;;;5044571;28;20116;-47
2023/04/05 05:33:24;;;;;;;1.75;1.30;;;19.80;28.80;;;;;;5045482;28;20021;-50
2023/04/05 05:35:50;;;;;;;2.30;1.35;;;19.80;28.70;;;;;;5048986;28;20029;-48
2023/04/05 05:38:19;;;;;;;1.77;1.27;;;19.80;28.80;;;;;;5042264;28;20500;-50
2023/04/05 05:40:45;;;;;;;1.60;1.30;;;19.80;28.70;;;;;;5046310;28;20083;-48
2023/04/05 05:43:11;;;;;;;2.53;1.48;;;19.80;28.70;;;;;;5045522;28;20048;-53
2023/04/05 05:45:36;;;;;;;2.10;1.40;;;19.80;28.70;;;;;;5042342;28;20041;-47
2023/04/05 05:48:02;;;;;;;2.90;1.30;;;19.80;28.70;;;;;;5044633;28;20044;-48
2023/04/05 05:50:31;;;;;;;2.33;1.30;;;19.80;28.70;;;;;;5046514;28;20075;-49
2023/04/05 05:53:00;;;;;;;2.10;1.25;;;19.80;28.70;;;;;;5046659;28;20036;-51
2023/04/05 05:55:26;;;;;;;2.95;1.50;;;19.80;29.20;;;;;;5048966;28;20025;-52
2023/04/05 05:57:52;;;;;;;3.80;1.50;;;19.80;28.70;;;;;;5049541;28;20036;-50
2023/04/05 06:00:20;;;;;;;3.15;1.38;;;19.80;28.80;;;;;;5046378;28;20553;-45
2023/04/05 06:02:45;;;;;;;2.63;1.30;;;19.80;28.80;;;;;;5044407;28;20029;-48
2023/04/05 06:05:11;;;;;;;2.03;1.33;;;19.80;28.80;;;;;;5047051;28;20021;-52
2023/04/05 06:07:38;;;;;;;2.10;1.30;;;19.80;28.80;;;;;;5045243;28;20094;-51
2023/04/05 06:10:08;;;;;;;3.20;1.45;;;19.80;28.90;;;;;;5043995;28;20041;-51
2023/04/05 06:12:34;;;;;;;2.25;1.35;;;19.80;28.80;;;;;;5050806;28;20039;-50
2023/04/05 06:15:00;;;;;;;2.78;1.55;;;19.80;28.90;;;;;;5049537;28;20020;-51
2023/04/05 06:17:27;;;;;;;2.60;1.50;;;19.80;28.80;;;;;;5051109;28;20448;-49
2023/04/05 06:19:53;;;;;;;2.00;1.35;;;19.80;28.90;;;;;;5047357;28;20037;-51
2023/04/05 06:22:18;;;;;;;2.00;1.20;;;19.80;28.90;;;;;;5047331;28;20031;-50
2023/04/05 06:24:44;;;;;;;2.58;1.45;;;19.80;28.90;;;;;;5048682;28;20033;-48
2023/04/05 06:27:13;;;;;;;3.38;1.60;;;19.80;29.40;;;;;;5048173;28;20053;-51
2023/04/05 06:29:39;;;;;;;2.75;1.45;;;19.80;28.90;;;;;;5047827;28;20024;-48
2023/04/05 06:32:05;;;;;;;2.53;1.27;;;19.80;28.90;;;;;;5055484;28;20039;-50
2023/04/05 06:34:31;;;;;;;1.63;1.23;;;19.80;28.90;;;;;;5042870;28;20025;-48
2023/04/05 06:36:59;;;;;;;3.13;1.48;;;19.80;28.90;;;;;;5040991;28;20399;-49
2023/04/05 06:39:25;;;;;;;1.98;1.40;;;19.80;28.90;;;;;;5040246;28;20510;-50
2023/04/05 06:41:50;;;;;;;1.80;1.17;;;19.80;28.90;;;;;;5042711;28;20040;-50
2023/04/05 06:44:23;;;;;;;2.85;1.38;;;19.80;28.90;;;;;;5048779;28;20053;-46
2023/04/05 06:46:49;;;;;;;2.45;1.70;;;19.80;29.00;;;;;;5036124;28;20060;-48
2023/04/05 06:49:16;;;;;;;1.77;1.15;;;19.80;29.00;;;;;;5041239;28;20087;-49
2023/04/05 06:51:41;;;;;;;3.03;1.73;;;19.80;29.00;;;;;;5046292;28;20040;-51
2023/04/05 06:54:07;;;;;;;2.20;1.63;;;19.80;29.00;;;;;;5045847;28;20361;-49
2023/04/05 06:56:33;;;;;;;2.85;2.00;;;19.80;28.90;;;;;;5049611;28;20025;-49
2023/04/05 06:59:01;;;;;;;2.50;1.65;;;19.80;28.80;;;;;;5052043;28;20344;-47
2023/04/05 07:01:27;;;;;;;3.60;2.00;;;19.90;28.90;;;;;;5036551;28;20457;-47
2023/04/05 07:03:52;;;;;;;4.05;2.30;;;19.90;28.80;;;;;;5043278;28;20033;-49
2023/04/05 07:06:18;;;;;;;4.80;2.55;;;19.90;28.80;;;;;;5039275;28;20072;-48
2023/04/05 07:08:44;;;;;;;3.15;2.20;;;19.90;28.80;;;;;;5040283;28;20040;-50
2023/04/05 07:11:12;;;;;;;4.97;2.70;;;19.90;28.80;;;;;;5047148;28;20406;-46
2023/04/05 07:13:38;;;;;;;5.25;3.20;;;19.90;28.70;;;;;;5061908;28;20025;-47
2023/04/05 07:16:04;;;;;;;4.93;3.05;;;20.00;28.80;;;;;;5062671;28;20021;-50
2023/04/05 07:18:30;;;;;;;5.10;3.08;;;20.00;28.90;;;;;;5052320;28;20033;-52
2023/04/05 07:21:02;;;;;;;5.55;3.47;;;20.00;28.90;;;;;;5056706;28;20543;-48
2023/04/05 07:23:30;;;;;;;4.53;3.15;;;20.10;29.40;;;;;;5056122;28;20052;-49
2023/04/05 07:26:03;;;;;;;4.93;3.38;;;20.10;28.80;;;;;;5058543;28;20025;-48
2023/04/05 07:28:31;;;;;;;5.07;3.30;;;20.10;28.70;;;;;;5066011;28;20048;-56
2023/04/05 07:30:57;;;;;;;6.20;3.78;;;20.20;28.70;;;;;;5056465;28;20036;-55
2023/04/05 07:33:23;;;;;;;4.85;3.40;;;20.20;28.80;;;;;;5054777;28;20376;-51
2023/04/05 07:35:53;;;;;;;5.57;3.50;;;20.30;28.90;;;;;;5075605;28;20043;-50
2023/04/05 07:38:20;;;;;;;5.68;3.83;;;20.30;29.00;;;;;;5061943;28;20069;-49
2023/04/05 07:40:48;;;;;;;5.65;3.97;;;20.30;28.90;;;;;;5048051;28;20083;-48
2023/04/05 07:43:14;;;;;;;5.22;3.53;;;20.40;28.80;;;;;;5044544;28;20048;-51
2023/04/05 07:45:40;;;;;;;6.25;3.97;;;20.40;28.70;;;;;;5058045;28;20044;-51
2023/04/05 07:48:06;;;;;;;6.30;4.38;;;20.40;28.70;;;;;;5043674;28;20029;-46
2023/04/05 07:50:35;;;;;;;5.93;4.22;;;20.50;28.60;;;;;;5051089;28;20033;-54
2023/04/05 07:53:00;;;;;;;6.88;5.07;;;20.50;28.60;;;;;;5043872;28;20021;-52
2023/04/05 07:55:26;;;;;;;7.38;5.18;;;20.50;28.50;;;;;;5039687;28;20035;-50
2023/04/05 07:57:54;;;;;;;7.93;5.22;;;20.60;28.50;;;;;;5032560;28;20099;-47
2023/04/05 08:00:21;;;;;;;7.40;5.93;;;20.60;28.40;;;;;;5069399;28;20116;-51
2023/04/05 08:02:47;;;;;;;7.32;5.63;;;20.60;28.50;;;;;;5040190;28;20045;-46
2023/04/05 08:05:13;;;;;;;8.73;6.20;;;20.60;28.50;;;;;;5066932;28;20024;-51
2023/04/05 08:07:38;;;;;;;9.57;6.68;;;20.70;28.60;;;;;;5046798;28;20412;-47
2023/04/05 08:10:05;;;;;;;9.25;6.45;;;20.70;28.70;;;;;;5037335;28;20064;-50
2023/04/05 08:12:31;;;;;;;8.85;6.65;;;20.70;28.60;;;;;;5053642;28;20102;-50
2023/04/05 08:14:57;;;;;;;8.35;5.70;;;20.70;28.60;;;;;;5055627;28;20437;-53
2023/04/05 08:17:25;;;;;;;8.52;5.93;;;20.70;28.40;;;;;;5054769;28;20044;-47
2023/04/05 08:19:52;;;;;;;7.43;5.50;;;20.70;28.30;;;;;;5055452;28;20029;-50
2023/04/05 08:22:18;;;;;;;8.80;5.53;;;20.70;28.20;;;;;;5056904;28;20031;-51
2023/04/05 08:24:44;;;;;;;6.43;5.07;;;20.70;28.10;;;;;;5075509;28;20044;-49
2023/04/05 08:27:11;;;;;;;7.25;5.45;;;20.70;28.00;;;;;;5074416;28;20127;-52
2023/04/05 08:29:37;;;;;;;8.23;4.90;;;20.70;27.90;;;;;;5075683;28;20036;-49
2023/04/05 08:32:03;;;;;;;7.57;5.07;;;20.70;27.80;;;;;;5043077;28;20090;-50
2023/04/05 08:34:29;;;;;;;6.90;4.93;;;20.70;27.80;;;;;;5040098;28;20034;-47
2023/04/05 08:36:59;;;;;;;7.07;4.95;;;20.80;27.80;;;;;;5035504;28;20107;-49
2023/04/05 08:39:25;;;;;;;7.88;5.13;;;20.70;27.70;;;;;;5035342;28;20421;-49
2023/04/05 08:42:02;;;;;;;6.57;5.25;;;20.70;27.60;;;;;;5056732;28;20347;-48
2023/04/05 08:44:30;;;;;;;7.15;4.80;;;20.70;27.60;;;;;;5074186;28;20131;-48
2023/04/05 08:46:59;;;;;;;6.88;4.63;;;20.70;27.60;;;;;;5075242;28;20040;-46
2023/04/05 08:49:24;;;;;;;6.82;4.90;;;20.70;27.50;;;;;;5074960;28;20017;-51
2023/04/05 08:51:50;;;;;;;5.68;4.30;;;20.70;27.50;;;;;;5068064;28;20029;-54
2023/04/05 08:54:16;;;;;;;6.50;4.45;;;20.80;27.40;;;;;;5071264;28;20096;-50
2023/04/05 08:56:45;;;;;;;4.82;4.07;;;20.80;27.40;;;;;;5074989;28;20129;-48
2023/04/05 08:59:14;;;;;;;5.03;3.85;;;20.80;27.30;;;;;;5075191;28;20036;-49
2023/04/05 09:01:47;;;;;;;5.70;4.13;;;20.80;27.20;;;;;;5075044;28;20043;-53
2023/04/05 09:04:17;;;;;;;4.93;4.00;;;20.80;27.20;;;;;;5073118;28;20033;-48
2023/04/05 09:06:44;;;;;;;6.78;4.38;;;20.80;27.10;;;;;;5074155;28;20536;-47
2023/04/05 09:09:10;;;;;;;7.03;3.92;;;20.80;27.10;;;;;;5074825;28;20036;-47
2023/04/05 09:11:37;;;;;;;6.38;3.22;;;20.90;27.10;;;;;;5074793;28;20029;-47
2023/04/05 09:14:06;;;;;;;6.00;4.32;;;20.90;27.00;;;;;;5072478;28;20146;-51
2023/04/05 09:16:40;;;;;;;6.00;4.03;;;20.90;27.00;;;;;;5075084;28;20033;-51
2023/04/05 09:19:07;;;;;;;6.88;3.97;;;20.90;27.00;;;;;;5074982;28;20036;-47
2023/04/05 09:22:02;;;;;;;5.88;3.92;;;20.90;27.00;;;;;;5055784;28;20033;-49
2023/04/05 09:24:33;;;;;;;5.63;4.45;;;20.90;27.00;;;;;;5053520;28;20029;-54
2023/04/05 09:27:12;;;;;;;6.88;4.13;;;20.90;27.00;;;;;;5054380;28;20051;-54
2023/04/05 09:29:40;;;;;;;6.38;4.30;;;20.90;27.10;;;;;;5053260;28;20025;-52
2023/04/05 09:32:09;;;;;;;6.32;4.47;;;20.90;27.00;;;;;;5052364;28;20021;-47
2023/04/05 09:34:36;;;;;;;6.47;4.82;;;20.90;27.00;;;;;;5040895;28;20051;-47
2023/04/05 09:37:12;;;;;;;6.97;4.90;;;20.90;27.10;;;;;;5054715;28;20029;-50
2023/04/05 09:39:37;;;;;;;6.85;4.60;;;20.90;27.10;;;;;;5051759;28;20095;-47
2023/04/05 09:42:12;;;;;;;7.35;5.43;;;20.90;27.20;;;;;;5055110;28;20041;-48
2023/04/05 09:45:04;;;;;;;7.07;5.07;;;20.80;27.10;;;;;;5053137;28;20056;-49
2023/04/05 09:47:35;;;;;;;6.38;4.60;;;20.90;27.10;;;;;;5050239;28;20034;-49
2023/04/05 09:50:14;;;;;;;6.28;4.60;;;20.90;27.10;;;;;;5041141;28;20036;-48
2023/04/05 09:52:40;;;;;;;6.13;4.60;;;20.80;27.10;;;;;;5064613;28;20111;-49
2023/04/05 09:55:07;;;;;;;6.03;4.57;;;20.80;27.00;;;;;;5072013;28;20029;-48
2023/04/05 09:57:36;;;;;;;7.53;5.00;;;20.80;27.00;;;;;;5078449;28;20201;-49
2023/04/05 10:00:04;;;;;;;22.08;15.02;;;20.80;27.00;;;;;;5073810;28;20040;-52
2023/04/05 10:02:40;;;;;;;21.88;16.85;;;20.80;27.60;;;;;;5050183;28;20033;-51
2023/04/05 10:05:07;;;;;;;24.83;17.38;;;20.80;28.20;;;;;;5041750;28;20474;-47
2023/04/05 10:07:34;;;;;;;22.10;16.83;;;20.80;28.30;;;;;;5039375;28;20107;-51
2023/04/05 10:10:02;;;;;;;22.58;16.00;;;20.80;28.30;;;;;;5053515;28;20025;-49
2023/04/05 10:12:28;;;;;;;21.48;15.98;;;20.80;28.20;;;;;;5053671;28;20029;-47
2023/04/05 10:14:57;;;;;;;21.63;15.93;;;20.80;28.10;;;;;;5052721;28;20059;-49
2023/04/05 10:17:54;;;;;;;19.60;14.48;;;20.80;28.00;;;;;;5053079;28;20109;-46
2023/04/05 10:20:22;;;;;;;20.10;14.00;;;20.70;27.90;;;;;;5049570;28;20131;-49
2023/04/05 10:23:18;;;;;;;18.75;13.57;;;20.70;27.80;;;;;;5054745;28;20444;-50
2023/04/05 10:25:52;;;;;;;26.30;19.25;;;20.70;27.70;;;;;;5037294;28;20049;-50
2023/04/05 10:28:36;;;;;;;26.30;18.88;;;20.70;28.00;;;;;;5036899;28;20044;-48
2023/04/05 10:31:13;;;;;;;21.92;16.75;;;20.70;28.40;;;;;;5042298;28;20025;-45
2023/04/05 10:33:44;;;;;;;21.45;15.60;;;20.70;28.30;;;;;;5069489;28;20032;-45
2023/04/05 10:36:41;;;;;;;21.88;15.40;;;20.70;28.10;;;;;;5057663;28;20044;-50
2023/04/05 10:39:27;;;;;;;19.02;14.07;;;20.70;28.00;;;;;;5057444;28;20145;-49
2023/04/05 10:42:12;;;;;;;19.83;14.27;;;20.70;27.90;;;;;;5058833;28;20040;-48
2023/04/05 10:44:39;;;;;;;17.38;12.93;;;20.70;27.90;;;;;;5037098;28;20064;-45
2023/04/05 10:47:08;;;;;;;18.23;13.05;;;20.70;27.80;;;;;;5036491;28;20136;-47
2023/04/05 10:49:39;;;;;;;15.50;11.85;;;20.60;27.70;;;;;;5037620;28;20038;-49
2023/04/05 10:52:05;;;;;;;16.20;12.05;;;20.60;27.60;;;;;;5048565;28;20025;-49
2023/04/05 10:54:37;;;;;;;16.85;12.27;;;20.70;27.60;;;;;;5057263;28;20314;-47
2023/04/05 10:57:06;;;;;;;15.98;11.45;;;20.60;27.50;;;;;;5057149;28;20106;-47
2023/04/05 10:59:33;;;;;;;15.07;11.25;;;20.60;27.40;;;;;;5056235;28;20364;-47
2023/04/05 11:02:00;;;;;;;14.43;10.52;;;20.60;27.40;;;;;;5056094;28;20040;-48
2023/04/05 11:04:26;;;;;;;12.80;9.90;;;20.60;27.30;;;;;;5056983;28;20033;-47
2023/04/05 11:07:13;;;;;;;14.32;10.60;;;20.60;27.30;;;;;;5057106;28;20456;-50
2023/04/05 11:09:59;;;;;;;11.52;9.25;;;20.60;27.20;;;;;;5056955;28;20108;-52
2023/04/05 11:12:51;;;;;;;13.25;9.32;;;20.60;27.10;;;;;;5070036;28;20094;-51
2023/04/05 11:15:26;;;;;;;11.27;8.20;;;20.60;27.00;;;;;;5076951;28;20025;-50
2023/04/05 11:18:16;;;;;;;11.18;8.45;;;20.60;27.00;;;;;;5077000;28;20058;-48
2023/04/05 11:20:45;;;;;;;13.43;9.30;;;20.60;27.00;;;;;;5075514;28;20363;-51
2023/04/05 11:23:14;;;;;;;11.77;8.50;;;20.60;27.00;;;;;;5055439;28;20028;-52
2023/04/05 11:25:45;;;;;;;11.60;8.57;;;20.50;26.90;;;;;;5056563;28;20040;-52
2023/04/05 11:28:29;;;;;;;10.85;7.82;;;20.50;26.90;;;;;;5056301;28;20457;-47
2023/04/05 11:30:57;;;;;;;10.88;7.90;;;20.50;26.80;;;;;;5055689;28;20068;-50
2023/04/05 11:33:41;;;;;;;10.57;7.95;;;20.50;26.80;;;;;;5050247;28;20041;-50
2023/04/05 11:36:08;;;;;;;9.45;7.22;;;20.50;26.70;;;;;;5036105;28;20033;-53
2023/04/05 11:38:34;;;;;;;10.00;7.10;;;20.50;26.70;;;;;;5036454;28;20386;-52
2023/04/05 11:41:20;;;;;;;11.48;7.75;;;20.50;26.60;;;;;;5037329;28;20068;-50
2023/04/05 11:43:46;;;;;;;9.98;7.40;;;20.50;26.50;;;;;;5075989;28;20138;-46
2023/04/05 11:46:15;;;;;;;8.85;6.60;;;20.50;26.50;;;;;;5057125;28;21633;-46
2023/04/05 11:48:41;;;;;;;11.13;7.50;;;20.50;26.50;;;;;;5076287;28;20085;-49
2023/04/05 11:51:09;;;;;;;10.60;7.68;;;20.50;26.50;;;;;;5074220;28;20111;-49
2023/04/05 11:53:36;;;;;;;9.48;7.10;;;20.50;26.50;;;;;;5076258;28;20032;-47
2023/04/05 11:56:14;;;;;;;9.68;7.50;;;20.50;26.50;;;;;;5075903;28;20031;-45
2023/04/05 11:58:41;;;;;;;10.35;7.80;;;20.50;26.50;;;;;;5075850;28;20044;-51
2023/04/05 12:01:08;;;;;;;10.07;7.55;;;20.50;26.50;;;;;;5073815;28;20398;-50
2023/04/05 12:03:35;;;;;;;9.20;7.05;;;20.50;26.50;;;;;;5074894;28;20167;-46
2023/04/05 12:06:03;;;;;;;11.00;7.55;;;20.50;26.50;;;;;;5075078;28;20115;-53
2023/04/05 12:08:50;;;;;;;10.27;7.60;;;20.50;26.40;;;;;;5075507;28;20036;-48
2023/04/05 12:11:26;;;;;;;10.93;7.68;;;20.50;26.40;;;;;;5073732;28;20040;-50
2023/04/05 12:13:57;;;;;;;9.55;6.65;;;20.50;26.40;;;;;;5070681;28;20032;-48
2023/04/05 12:16:23;;;;;;;10.63;7.18;;;20.50;26.30;;;;;;5075484;28;20079;-45
2023/04/05 12:18:54;;;;;;;11.30;7.53;;;20.50;26.30;;;;;;5075327;28;20024;-51
2023/04/05 12:21:20;;;;;;;11.38;7.50;;;20.50;26.30;;;;;;5075280;28;20355;-46
2023/04/05 12:23:47;;;;;;;10.23;7.45;;;20.50;26.30;;;;;;5072735;28;20442;-49
2023/04/05 12:26:13;;;;;;;10.40;7.22;;;20.50;26.30;;;;;;5075546;28;20043;-47
2023/04/05 12:28:56;;;;;;;10.38;7.47;;;20.50;26.30;;;;;;5075804;28;20040;-50
2023/04/05 12:31:38;;;;;;;10.27;7.38;;;20.40;26.20;;;;;;5075184;28;20032;-48
2023/04/05 12:34:05;;;;;;;10.07;7.32;;;20.50;26.20;;;;;;5046766;28;20035;-53
2023/04/05 12:36:31;;;;;;;11.40;8.00;;;20.40;26.20;;;;;;5055491;28;20025;-47
2023/04/05 12:38:58;;;;;;;10.50;7.45;;;20.40;26.20;;;;;;5055494;28;20057;-46
2023/04/05 12:41:30;;;;;;;9.98;7.00;;;20.50;26.20;;;;;;5055176;28;20104;-49
2023/04/05 12:44:00;;;;;;;9.27;7.10;;;20.50;26.20;;;;;;5055355;28;20057;-48
2023/04/05 12:46:47;;;;;;;10.55;7.60;;;20.50;26.20;;;;;;5074981;28;20067;-49
2023/04/05 12:49:16;;;;;;;11.30;7.90;;;20.50;26.20;;;;;;5074918;28;20059;-47
2023/04/05 12:51:46;;;;;;;9.95;7.18;;;20.50;26.20;;;;;;5074915;28;20127;-51
2023/04/05 12:54:20;;;;;;;10.13;7.70;;;20.40;26.20;;;;;;5072040;28;20045;-50
2023/04/05 12:56:49;;;;;;;10.52;7.82;;;20.40;26.10;;;;;;5074773;28;20028;-48
2023/04/05 12:59:15;;;;;;;10.13;7.28;;;20.50;26.10;;;;;;5073921;28;20028;-49